sensor_id;sensor_type;location;lat;lon;timestamp;pressure;altitude;pressure_sealevel;temperature;humidity
8501;BME280;4288;48.484;10.024;2023-04-06T09:10:20;95795.38;;;11.36;nan
8501;BME280;4288;48.484;10.024;2023-04-06T09:12:49;95804.75;;;10.33;nan
8501;BME280;4288;48.484;10.024;2023-04-06T09:15:21;95791.75;;;12.14;nan
8501;BME280;4288;48.484;10.024;2023-04-06T09:17:48;95797.00;;;11.58;nan
8501;BME280;4288;48.484;10.024;2023-04-06T09:20:23;95796.72;;;12.37;nan
8501;BME280;4288;48.484;10.024;2023-04-06T09:22:53;95799.78;;;12.14;nan
8501;BME280;4288;48.484;10.024;2023-04-06T09:25:22;95792.13;;;12.09;nan
8501;BME280;4288;48.484;10.024;2023-04-06T09:27:59;95798.22;;;11.89;nan
8501;BME280;4288;48.484;10.024;2023-04-06T09:30:27;95799.69;;;11.61;nan
8501;BME280;4288;48.484;10.024;2023-04-06T09:32:55;95795.59;;;12.17;nan
8501;BME280;4288;48.484;10.024;2023-04-06T09:35:23;95796.63;;;12.93;nan
8501;BME280;4288;48.484;10.024;2023-04-06T09:37:53;95797.09;;;12.57;nan
8501;BME280;4288;48.484;10.024;2023-04-06T09:40:21;95789.41;;;12.59;nan
8501;BME280;4288;48.484;10.024;2023-04-06T09:42:49;95789.03;;;12.67;nan
8501;BME280;4288;48.484;10.024;2023-04-06T09:45:17;95787.84;;;12.93;nan
8501;BME280;4288;48.484;10.024;2023-04-06T09:47:46;95787.50;;;13.74;nan
8501;BME280;4288;48.484;10.024;2023-04-06T09:50:14;95782.75;;;13.30;nan
8501;BME280;4288;48.484;10.024;2023-04-06T09:52:47;95780.53;;;13.83;nan
8501;BME280;4288;48.484;10.024;2023-04-06T09:55:23;95780.06;;;13.95;nan
8501;BME280;4288;48.484;10.024;2023-04-06T09:57:58;95785.84;;;13.21;nan
8501;BME280;4288;48.484;10.024;2023-04-06T10:00:32;95780.13;;;13.88;nan
8501;BME280;4288;48.484;10.024;2023-04-06T10:03:08;95776.38;;;14.30;nan
8501;BME280;4288;48.484;10.024;2023-04-06T10:05:50;95774.81;;;12.95;nan
8501;BME280;4288;48.484;10.024;2023-04-06T10:08:19;95775.06;;;13.32;nan
8501;BME280;4288;48.484;10.024;2023-04-06T10:10:49;95770.78;;;14.07;nan
8501;BME280;4288;48.484;10.024;2023-04-06T10:13:19;95772.09;;;14.36;nan
8501;BME280;4288;48.484;10.024;2023-04-06T10:15:47;95772.69;;;14.58;nan
8501;BME280;4288;48.484;10.024;2023-04-06T10:18:15;95771.63;;;15.23;nan
8501;BME280;4288;48.484;10.024;2023-04-06T10:20:49;95773.97;;;13.91;nan
8501;BME280;4288;48.484;10.024;2023-04-06T10:23:23;95768.75;;;12.45;nan
8501;BME280;4288;48.484;10.024;2023-04-06T10:25:57;95774.31;;;13.97;nan
8501;BME280;4288;48.484;10.024;2023-04-06T10:28:25;95775.41;;;14.54;nan
8501;BME280;4288;48.484;10.024;2023-04-06T10:30:58;95769.69;;;15.23;nan
8501;BME280;4288;48.484;10.024;2023-04-06T10:33:25;95761.41;;;15.07;nan
8501;BME280;4288;48.484;10.024;2023-04-06T10:35:53;95760.25;;;15.68;nan
8501;BME280;4288;48.484;10.024;2023-04-06T10:38:21;95767.78;;;14.86;nan
8501;BME280;4288;48.484;10.024;2023-04-06T10:41:06;95759.31;;;14.88;nan
8501;BME280;4288;48.484;10.024;2023-04-06T10:43:34;95765.28;;;14.69;nan
8501;BME280;4288;48.484;10.024;2023-04-06T10:46:03;95761.38;;;15.10;nan
8501;BME280;4288;48.484;10.024;2023-04-06T10:48:38;95763.66;;;15.12;nan
8501;BME280;4288;48.484;10.024;2023-04-06T10:51:12;95759.97;;;15.33;nan
8501;BME280;4288;48.484;10.024;2023-04-06T10:53:42;95758.56;;;14.87;nan
8501;BME280;4288;48.484;10.024;2023-04-06T10:56:13;95749.09;;;15.06;nan
8501;BME280;4288;48.484;10.024;2023-04-06T10:58:45;95751.19;;;15.85;nan
8501;BME280;4288;48.484;10.024;2023-04-06T11:01:15;95758.34;;;14.31;nan
8501;BME280;4288;48.484;10.024;2023-04-06T11:03:46;95752.16;;;14.34;nan
8501;BME280;4288;48.484;10.024;2023-04-06T11:06:21;95749.53;;;15.65;nan
8501;BME280;4288;48.484;10.024;2023-04-06T11:08:49;95748.09;;;15.87;nan
8501;BME280;4288;48.484;10.024;2023-04-06T11:11:20;95755.56;;;14.41;nan
8501;BME280;4288;48.484;10.024;2023-04-06T11:13:50;95741.75;;;15.10;nan
8501;BME280;4288;48.484;10.024;2023-04-06T11:21:18;95738.56;;;15.79;nan
8501;BME280;4288;48.484;10.024;2023-04-06T11:23:45;95739.06;;;15.97;nan
8501;BME280;4288;48.484;10.024;2023-04-06T11:26:13;95733.84;;;15.86;nan
8501;BME280;4288;48.484;10.024;2023-04-06T11:28:42;95746.09;;;15.34;nan
8501;BME280;4288;48.484;10.024;2023-04-06T11:31:10;95732.56;;;15.38;nan
8501;BME280;4288;48.484;10.024;2023-04-06T11:33:38;95742.22;;;14.68;nan
8501;BME280;4288;48.484;10.024;2023-04-06T11:36:06;95730.91;;;14.83;nan
8501;BME280;4288;48.484;10.024;2023-04-06T11:38:34;95737.50;;;15.73;nan
8501;BME280;4288;48.484;10.024;2023-04-06T11:41:05;95732.09;;;15.99;nan
8501;BME280;4288;48.484;10.024;2023-04-06T11:43:33;95728.19;;;15.51;nan
8501;BME280;4288;48.484;10.024;2023-04-06T11:46:03;95724.66;;;15.24;nan
8501;BME280;4288;48.484;10.024;2023-04-06T11:48:32;95726.13;;;17.01;nan
8501;BME280;4288;48.484;10.024;2023-04-06T11:51:10;95719.34;;;14.86;nan
8501;BME280;4288;48.484;10.024;2023-04-06T11:53:44;95722.28;;;15.29;nan
8501;BME280;4288;48.484;10.024;2023-04-06T11:56:21;95712.38;;;15.23;nan
8501;BME280;4288;48.484;10.024;2023-04-06T11:58:49;95706.13;;;15.29;nan
8501;BME280;4288;48.484;10.024;2023-04-06T12:01:17;95710.88;;;16.48;nan
8501;BME280;4288;48.484;10.024;2023-04-06T12:03:45;95703.84;;;14.64;nan
8501;BME280;4288;48.484;10.024;2023-04-06T12:06:12;95700.31;;;16.57;nan
8501;BME280;4288;48.484;10.024;2023-04-06T12:08:40;95697.06;;;15.73;nan
8501;BME280;4288;48.484;10.024;2023-04-06T12:11:07;95704.63;;;17.13;nan
8501;BME280;4288;48.484;10.024;2023-04-06T12:13:34;95703.69;;;16.18;nan
8501;BME280;4288;48.484;10.024;2023-04-06T12:16:02;95701.31;;;16.66;nan
8501;BME280;4288;48.484;10.024;2023-04-06T12:18:31;95704.03;;;15.70;nan
8501;BME280;4288;48.484;10.024;2023-04-06T12:20:59;95704.47;;;15.08;nan
8501;BME280;4288;48.484;10.024;2023-04-06T12:23:26;95693.63;;;15.72;nan
8501;BME280;4288;48.484;10.024;2023-04-06T12:25:53;95693.41;;;16.33;nan
8501;BME280;4288;48.484;10.024;2023-04-06T12:28:21;95696.16;;;17.31;nan
8501;BME280;4288;48.484;10.024;2023-04-06T12:30:52;95683.25;;;17.58;nan
8501;BME280;4288;48.484;10.024;2023-04-06T12:33:21;95684.44;;;17.73;nan
8501;BME280;4288;48.484;10.024;2023-04-06T12:35:49;95697.19;;;18.53;nan
8501;BME280;4288;48.484;10.024;2023-04-06T12:38:16;95683.66;;;18.37;nan
8501;BME280;4288;48.484;10.024;2023-04-06T12:40:44;95687.94;;;18.06;nan
8501;BME280;4288;48.484;10.024;2023-04-06T12:43:11;95686.38;;;17.37;nan
8501;BME280;4288;48.484;10.024;2023-04-06T12:45:39;95677.72;;;18.42;nan
8501;BME280;4288;48.484;10.024;2023-04-06T12:48:07;95670.44;;;17.78;nan
8501;BME280;4288;48.484;10.024;2023-04-06T12:50:34;95676.44;;;17.86;nan
8501;BME280;4288;48.484;10.024;2023-04-06T12:53:03;95665.50;;;18.21;nan
8501;BME280;4288;48.484;10.024;2023-04-06T12:55:30;95659.25;;;16.03;nan
8501;BME280;4288;48.484;10.024;2023-04-06T12:58:00;95659.72;;;16.41;nan
8501;BME280;4288;48.484;10.024;2023-04-06T13:00:27;95660.38;;;17.07;nan
8501;BME280;4288;48.484;10.024;2023-04-06T13:02:55;95660.09;;;17.21;nan
8501;BME280;4288;48.484;10.024;2023-04-06T13:05:22;95654.34;;;17.71;nan
8501;BME280;4288;48.484;10.024;2023-04-06T13:07:49;95661.31;;;17.01;nan
8501;BME280;4288;48.484;10.024;2023-04-06T13:10:18;95655.00;;;16.68;nan
8501;BME280;4288;48.484;10.024;2023-04-06T13:12:45;95663.38;;;17.48;nan
8501;BME280;4288;48.484;10.024;2023-04-06T13:15:12;95652.75;;;17.73;nan
8501;BME280;4288;48.484;10.024;2023-04-06T13:17:40;95656.72;;;17.85;nan
8501;BME280;4288;48.484;10.024;2023-04-06T13:20:09;95649.28;;;18.05;nan
8501;BME280;4288;48.484;10.024;2023-04-06T13:22:36;95655.78;;;16.88;nan
8501;BME280;4288;48.484;10.024;2023-04-06T13:25:04;95643.97;;;16.39;nan
8501;BME280;4288;48.484;10.024;2023-04-06T13:27:33;95649.53;;;17.27;nan
8501;BME280;4288;48.484;10.024;2023-04-06T13:30:01;95654.19;;;17.27;nan
8501;BME280;4288;48.484;10.024;2023-04-06T13:32:29;95641.50;;;16.48;nan
8501;BME280;4288;48.484;10.024;2023-04-06T13:34:57;95647.16;;;17.13;nan
8501;BME280;4288;48.484;10.024;2023-04-06T13:37:26;95647.91;;;17.13;nan
8501;BME280;4288;48.484;10.024;2023-04-06T13:39:53;95640.41;;;14.96;nan
8501;BME280;4288;48.484;10.024;2023-04-06T13:42:20;95639.31;;;14.94;nan
8501;BME280;4288;48.484;10.024;2023-04-06T13:44:49;95639.88;;;14.78;nan
8501;BME280;4288;48.484;10.024;2023-04-06T13:47:17;95632.56;;;15.62;nan
8501;BME280;4288;48.484;10.024;2023-04-06T13:49:44;95631.78;;;15.35;nan
8501;BME280;4288;48.484;10.024;2023-04-06T13:52:11;95627.19;;;15.09;nan
8501;BME280;4288;48.484;10.024;2023-04-06T13:54:38;95634.41;;;14.14;nan
8501;BME280;4288;48.484;10.024;2023-04-06T13:57:05;95625.28;;;15.06;nan
8501;BME280;4288;48.484;10.024;2023-04-06T13:59:33;95632.03;;;14.61;nan
8501;BME280;4288;48.484;10.024;2023-04-06T14:02:02;95618.19;;;13.84;nan
8501;BME280;4288;48.484;10.024;2023-04-06T14:04:30;95622.69;;;14.99;nan
8501;BME280;4288;48.484;10.024;2023-04-06T14:06:57;95621.44;;;15.07;nan
8501;BME280;4288;48.484;10.024;2023-04-06T14:09:25;95617.72;;;15.51;nan
8501;BME280;4288;48.484;10.024;2023-04-06T14:11:52;95610.94;;;16.12;nan
8501;BME280;4288;48.484;10.024;2023-04-06T14:14:19;95617.59;;;14.78;nan
8501;BME280;4288;48.484;10.024;2023-04-06T14:16:47;95609.78;;;14.87;nan
8501;BME280;4288;48.484;10.024;2023-04-06T14:19:16;95610.78;;;15.27;nan
8501;BME280;4288;48.484;10.024;2023-04-06T14:21:45;95614.06;;;15.38;nan
8501;BME280;4288;48.484;10.024;2023-04-06T14:24:12;95611.25;;;15.94;nan
8501;BME280;4288;48.484;10.024;2023-04-06T14:26:40;95607.66;;;15.78;nan
8501;BME280;4288;48.484;10.024;2023-04-06T14:29:09;95612.63;;;16.26;nan
8501;BME280;4288;48.484;10.024;2023-04-06T14:31:36;95608.09;;;16.19;nan
8501;BME280;4288;48.484;10.024;2023-04-06T14:34:04;95612.47;;;17.11;nan
8501;BME280;4288;48.484;10.024;2023-04-06T14:36:33;95609.44;;;17.25;nan
8501;BME280;4288;48.484;10.024;2023-04-06T14:39:02;95604.34;;;17.11;nan
8501;BME280;4288;48.484;10.024;2023-04-06T14:41:33;95599.72;;;16.14;nan
8501;BME280;4288;48.484;10.024;2023-04-06T14:44:01;95601.34;;;15.65;nan
8501;BME280;4288;48.484;10.024;2023-04-06T14:46:28;95602.06;;;16.54;nan
8501;BME280;4288;48.484;10.024;2023-04-06T14:48:56;95602.22;;;16.04;nan
8501;BME280;4288;48.484;10.024;2023-04-06T14:51:25;95600.69;;;14.47;nan
8501;BME280;4288;48.484;10.024;2023-04-06T14:53:54;95597.56;;;14.79;nan
8501;BME280;4288;48.484;10.024;2023-04-06T14:56:22;95592.41;;;15.48;nan
8501;BME280;4288;48.484;10.024;2023-04-06T14:58:49;95596.69;;;14.89;nan
8501;BME280;4288;48.484;10.024;2023-04-06T15:01:18;95594.41;;;15.14;nan
8501;BME280;4288;48.484;10.024;2023-04-06T15:03:46;95591.13;;;15.03;nan
8501;BME280;4288;48.484;10.024;2023-04-06T15:06:14;95582.03;;;14.63;nan
8501;BME280;4288;48.484;10.024;2023-04-06T15:08:42;95586.50;;;14.73;nan
8501;BME280;4288;48.484;10.024;2023-04-06T15:11:11;95587.34;;;14.67;nan
8501;BME280;4288;48.484;10.024;2023-04-06T15:13:39;95590.88;;;14.26;nan
8501;BME280;4288;48.484;10.024;2023-04-06T15:16:07;95584.72;;;14.93;nan
8501;BME280;4288;48.484;10.024;2023-04-06T15:18:34;95592.94;;;14.53;nan
8501;BME280;4288;48.484;10.024;2023-04-06T15:21:02;95580.72;;;14.45;nan
8501;BME280;4288;48.484;10.024;2023-04-06T15:23:29;95589.66;;;14.68;nan
8501;BME280;4288;48.484;10.024;2023-04-06T15:25:57;95586.91;;;14.72;nan
8501;BME280;4288;48.484;10.024;2023-04-06T15:28:25;95583.59;;;14.61;nan
8501;BME280;4288;48.484;10.024;2023-04-06T15:30:54;95587.06;;;14.27;nan
8501;BME280;4288;48.484;10.024;2023-04-06T15:33:21;95580.75;;;14.71;nan
8501;BME280;4288;48.484;10.024;2023-04-06T15:35:48;95579.84;;;14.55;nan
8501;BME280;4288;48.484;10.024;2023-04-06T15:38:15;95582.78;;;13.93;nan
8501;BME280;4288;48.484;10.024;2023-04-06T15:40:44;95581.66;;;13.50;nan
8501;BME280;4288;48.484;10.024;2023-04-06T15:43:12;95588.59;;;13.47;nan
8501;BME280;4288;48.484;10.024;2023-04-06T15:45:41;95581.47;;;13.23;nan
8501;BME280;4288;48.484;10.024;2023-04-06T15:48:08;95589.88;;;13.25;nan
8501;BME280;4288;48.484;10.024;2023-04-06T15:50:36;95586.41;;;13.31;nan
8501;BME280;4288;48.484;10.024;2023-04-06T15:53:03;95594.97;;;13.12;nan
8501;BME280;4288;48.484;10.024;2023-04-06T15:55:30;95586.22;;;12.98;nan
8501;BME280;4288;48.484;10.024;2023-04-06T15:57:57;95590.13;;;13.45;nan
8501;BME280;4288;48.484;10.024;2023-04-06T16:00:25;95588.47;;;13.10;nan
8501;BME280;4288;48.484;10.024;2023-04-06T16:02:54;95585.88;;;12.92;nan
8501;BME280;4288;48.484;10.024;2023-04-06T16:05:22;95585.91;;;12.82;nan
8501;BME280;4288;48.484;10.024;2023-04-06T16:07:49;95585.25;;;12.64;nan
8501;BME280;4288;48.484;10.024;2023-04-06T16:10:16;95588.06;;;12.32;nan
8501;BME280;4288;48.484;10.024;2023-04-06T16:12:44;95582.72;;;12.32;nan
8501;BME280;4288;48.484;10.024;2023-04-06T16:15:11;95578.81;;;12.54;nan
8501;BME280;4288;48.484;10.024;2023-04-06T16:17:38;95586.53;;;12.34;nan
8501;BME280;4288;48.484;10.024;2023-04-06T16:20:08;95584.28;;;12.15;nan
8501;BME280;4288;48.484;10.024;2023-04-06T16:22:36;95588.50;;;12.09;nan
8501;BME280;4288;48.484;10.024;2023-04-06T16:25:04;95583.22;;;11.81;nan
8501;BME280;4288;48.484;10.024;2023-04-06T16:27:31;95590.88;;;11.69;nan
8501;BME280;4288;48.484;10.024;2023-04-06T16:29:58;95587.81;;;11.59;nan
8501;BME280;4288;48.484;10.024;2023-04-06T16:32:26;95586.28;;;11.27;nan
8501;BME280;4288;48.484;10.024;2023-04-06T16:34:53;95583.22;;;11.18;nan
8501;BME280;4288;48.484;10.024;2023-04-06T16:37:21;95584.75;;;11.15;nan
8501;BME280;4288;48.484;10.024;2023-04-06T16:39:48;95586.28;;;11.13;nan
8501;BME280;4288;48.484;10.024;2023-04-06T16:42:15;95593.91;;;10.97;nan
8501;BME280;4288;48.484;10.024;2023-04-06T16:44:45;95591.97;;;10.87;nan
8501;BME280;4288;48.484;10.024;2023-04-06T16:47:13;95593.84;;;10.75;nan
8501;BME280;4288;48.484;10.024;2023-04-06T16:49:41;95591.53;;;10.63;nan
8501;BME280;4288;48.484;10.024;2023-04-06T16:52:08;95591.13;;;10.54;nan
8501;BME280;4288;48.484;10.024;2023-04-06T16:54:37;95596.44;;;10.47;nan
8501;BME280;4288;48.484;10.024;2023-04-06T16:57:04;95589.88;;;10.31;nan
8501;BME280;4288;48.484;10.024;2023-04-06T16:59:31;95590.56;;;10.10;nan
8501;BME280;4288;48.484;10.024;2023-04-06T17:04:25;95587.03;;;9.99;nan
8501;BME280;4288;48.484;10.024;2023-04-06T17:06:53;95589.69;;;9.96;nan
8501;BME280;4288;48.484;10.024;2023-04-06T17:09:20;95598.78;;;9.87;nan
8501;BME280;4288;48.484;10.024;2023-04-06T17:11:49;95592.63;;;9.76;nan
8501;BME280;4288;48.484;10.024;2023-04-06T17:14:16;95594.75;;;9.53;nan
8501;BME280;4288;48.484;10.024;2023-04-06T17:16:44;95589.38;;;9.50;nan
8501;BME280;4288;48.484;10.024;2023-04-06T17:19:11;95593.59;;;9.04;nan
8501;BME280;4288;48.484;10.024;2023-04-06T17:21:39;95590.25;;;9.14;nan
8501;BME280;4288;48.484;10.024;2023-04-06T17:24:06;95599.13;;;8.84;nan
8501;BME280;4288;48.484;10.024;2023-04-06T17:26:34;95596.69;;;8.72;nan
8501;BME280;4288;48.484;10.024;2023-04-06T17:29:03;95590.97;;;8.70;nan
8501;BME280;4288;48.484;10.024;2023-04-06T17:31:30;95599.38;;;8.72;nan
8501;BME280;4288;48.484;10.024;2023-04-06T17:33:57;95592.44;;;8.64;nan
8501;BME280;4288;48.484;10.024;2023-04-06T17:36:24;95596.56;;;8.58;nan
8501;BME280;4288;48.484;10.024;2023-04-06T17:38:53;95591.53;;;8.50;nan
8501;BME280;4288;48.484;10.024;2023-04-06T17:41:20;95595.00;;;8.24;nan
8501;BME280;4288;48.484;10.024;2023-04-06T17:43:47;95596.84;;;8.20;nan
8501;BME280;4288;48.484;10.024;2023-04-06T17:46:17;95601.03;;;8.21;nan
8501;BME280;4288;48.484;10.024;2023-04-06T17:48:45;95596.88;;;8.24;nan
8501;BME280;4288;48.484;10.024;2023-04-06T17:51:13;95598.72;;;8.20;nan
8501;BME280;4288;48.484;10.024;2023-04-06T17:53:43;95601.31;;;8.13;nan
8501;BME280;4288;48.484;10.024;2023-04-06T17:56:11;95605.00;;;8.04;nan
8501;BME280;4288;48.484;10.024;2023-04-06T17:58:41;95608.84;;;8.07;nan
8501;BME280;4288;48.484;10.024;2023-04-06T18:01:10;95604.28;;;8.07;nan
8501;BME280;4288;48.484;10.024;2023-04-06T18:03:38;95611.94;;;8.09;nan
8501;BME280;4288;48.484;10.024;2023-04-06T18:06:10;95610.00;;;7.80;nan
8501;BME280;4288;48.484;10.024;2023-04-06T18:08:38;95615.66;;;7.78;nan
8501;BME280;4288;48.484;10.024;2023-04-06T18:11:05;95616.16;;;7.84;nan
8501;BME280;4288;48.484;10.024;2023-04-06T18:13:33;95622.13;;;7.77;nan
8501;BME280;4288;48.484;10.024;2023-04-06T18:16:00;95620.03;;;7.64;nan
8501;BME280;4288;48.484;10.024;2023-04-06T18:18:28;95617.63;;;7.55;nan
8501;BME280;4288;48.484;10.024;2023-04-06T18:20:56;95622.56;;;7.57;nan
8501;BME280;4288;48.484;10.024;2023-04-06T18:23:23;95621.13;;;7.37;nan
8501;BME280;4288;48.484;10.024;2023-04-06T18:25:50;95622.91;;;7.29;nan
8501;BME280;4288;48.484;10.024;2023-04-06T18:28:18;95626.88;;;7.39;nan
8501;BME280;4288;48.484;10.024;2023-04-06T18:30:45;95626.88;;;7.39;nan
8501;BME280;4288;48.484;10.024;2023-04-06T18:33:12;95627.47;;;7.29;nan
8501;BME280;4288;48.484;10.024;2023-04-06T18:35:39;95633.19;;;7.08;nan
8501;BME280;4288;48.484;10.024;2023-04-06T18:38:09;95638.00;;;7.02;nan
8501;BME280;4288;48.484;10.024;2023-04-06T18:40:38;95633.38;;;6.96;nan
8501;BME280;4288;48.484;10.024;2023-04-06T18:43:07;95630.66;;;6.73;nan
8501;BME280;4288;48.484;10.024;2023-04-06T18:45:35;95639.63;;;6.46;nan
8501;BME280;4288;48.484;10.024;2023-04-06T18:48:04;69197.78;;;-143.23;100.00
8501;BME280;4288;48.484;10.024;2023-04-06T18:50:31;69197.78;;;-143.23;100.00
8501;BME280;4288;48.484;10.024;2023-04-06T18:52:58;69197.78;;;-143.23;100.00
8501;BME280;4288;48.484;10.024;2023-04-06T18:55:27;69197.78;;;-143.23;100.00
8501;BME280;4288;48.484;10.024;2023-04-06T18:57:54;69197.78;;;-143.23;100.00
8501;BME280;4288;48.484;10.024;2023-04-06T19:00:21;69197.78;;;-143.23;100.00
8501;BME280;4288;48.484;10.024;2023-04-06T19:02:48;69197.78;;;-143.23;100.00
8501;BME280;4288;48.484;10.024;2023-04-06T19:05:15;69197.78;;;-143.23;100.00
8501;BME280;4288;48.484;10.024;2023-04-06T19:07:43;69197.78;;;-143.23;100.00
8501;BME280;4288;48.484;10.024;2023-04-06T19:10:14;69197.78;;;-143.23;100.00
8501;BME280;4288;48.484;10.024;2023-04-06T19:12:42;69197.78;;;-143.23;100.00
8501;BME280;4288;48.484;10.024;2023-04-06T19:15:11;69197.78;;;-143.23;100.00
8501;BME280;4288;48.484;10.024;2023-04-06T19:17:38;69197.78;;;-143.23;100.00
8501;BME280;4288;48.484;10.024;2023-04-06T19:20:06;69197.78;;;-143.23;100.00
8501;BME280;4288;48.484;10.024;2023-04-06T19:22:34;69197.78;;;-143.23;100.00
8501;BME280;4288;48.484;10.024;2023-04-06T19:25:02;69197.78;;;-143.23;100.00
8501;BME280;4288;48.484;10.024;2023-04-06T19:27:29;69197.78;;;-143.23;100.00
8501;BME280;4288;48.484;10.024;2023-04-06T19:29:58;69197.78;;;-143.23;100.00
8501;BME280;4288;48.484;10.024;2023-04-06T19:32:25;69197.78;;;-143.23;100.00
8501;BME280;4288;48.484;10.024;2023-04-06T19:34:53;69197.78;;;-143.23;100.00
8501;BME280;4288;48.484;10.024;2023-04-06T19:37:21;69197.78;;;-143.23;100.00
8501;BME280;4288;48.484;10.024;2023-04-06T19:39:48;69197.78;;;-143.23;100.00
8501;BME280;4288;48.484;10.024;2023-04-06T19:42:15;69197.78;;;-143.23;100.00
8501;BME280;4288;48.484;10.024;2023-04-06T19:44:46;69197.78;;;-143.23;100.00
8501;BME280;4288;48.484;10.024;2023-04-06T19:47:14;69197.78;;;-143.23;100.00
8501;BME280;4288;48.484;10.024;2023-04-06T19:49:41;69197.78;;;-143.23;100.00
8501;BME280;4288;48.484;10.024;2023-04-06T19:52:09;69197.78;;;-143.23;100.00
8501;BME280;4288;48.484;10.024;2023-04-06T19:54:37;69197.78;;;-143.23;100.00
8501;BME280;4288;48.484;10.024;2023-04-06T19:57:04;69197.78;;;-143.23;100.00
8501;BME280;4288;48.484;10.024;2023-04-06T19:59:31;69197.78;;;-143.23;100.00
8501;BME280;4288;48.484;10.024;2023-04-06T20:02:00;69197.78;;;-143.23;100.00
8501;BME280;4288;48.484;10.024;2023-04-06T20:04:29;69197.78;;;-143.23;100.00
8501;BME280;4288;48.484;10.024;2023-04-06T20:06:56;69197.78;;;-143.23;100.00
8501;BME280;4288;48.484;10.024;2023-04-06T20:09:23;69197.78;;;-143.23;100.00
8501;BME280;4288;48.484;10.024;2023-04-06T20:11:51;69197.78;;;-143.23;100.00
8501;BME280;4288;48.484;10.024;2023-04-06T20:14:18;69197.78;;;-143.23;100.00
8501;BME280;4288;48.484;10.024;2023-04-06T20:16:46;69197.78;;;-143.23;100.00
8501;BME280;4288;48.484;10.024;2023-04-06T20:19:13;69197.78;;;-143.23;100.00
8501;BME280;4288;48.484;10.024;2023-04-06T20:21:42;69197.78;;;-143.23;100.00
8501;BME280;4288;48.484;10.024;2023-04-06T20:24:09;69197.78;;;-143.23;100.00
8501;BME280;4288;48.484;10.024;2023-04-06T20:26:37;69197.78;;;-143.23;100.00
8501;BME280;4288;48.484;10.024;2023-04-06T20:29:04;69197.78;;;-143.23;100.00
8501;BME280;4288;48.484;10.024;2023-04-06T20:31:31;69197.78;;;-143.23;100.00
8501;BME280;4288;48.484;10.024;2023-04-06T20:33:59;69197.78;;;-143.23;100.00
8501;BME280;4288;48.484;10.024;2023-04-06T20:36:26;69197.78;;;-143.23;100.00
8501;BME280;4288;48.484;10.024;2023-04-06T20:38:55;69197.78;;;-143.23;100.00
8501;BME280;4288;48.484;10.024;2023-04-06T20:41:22;69197.78;;;-143.23;100.00
8501;BME280;4288;48.484;10.024;2023-04-06T20:43:49;69197.78;;;-143.23;100.00
8501;BME280;4288;48.484;10.024;2023-04-06T20:46:17;69197.78;;;-143.23;100.00
8501;BME280;4288;48.484;10.024;2023-04-06T20:48:44;69197.78;;;-143.23;100.00
8501;BME280;4288;48.484;10.024;2023-04-06T20:51:17;69197.78;;;-143.23;100.00
8501;BME280;4288;48.484;10.024;2023-04-06T20:53:45;69197.78;;;-143.23;100.00
8501;BME280;4288;48.484;10.024;2023-04-06T20:56:14;69197.78;;;-143.23;100.00
8501;BME280;4288;48.484;10.024;2023-04-06T20:58:41;69197.78;;;-143.23;100.00
8501;BME280;4288;48.484;10.024;2023-04-06T21:01:13;69197.78;;;-143.23;100.00
8501;BME280;4288;48.484;10.024;2023-04-06T21:03:41;69197.78;;;-143.23;100.00
8501;BME280;4288;48.484;10.024;2023-04-06T21:06:09;69197.78;;;-143.23;100.00
8501;BME280;4288;48.484;10.024;2023-04-06T21:08:36;69197.78;;;-143.23;100.00
8501;BME280;4288;48.484;10.024;2023-04-06T21:11:03;69197.78;;;-143.23;100.00
8501;BME280;4288;48.484;10.024;2023-04-06T21:13:32;69197.78;;;-143.23;100.00
8501;BME280;4288;48.484;10.024;2023-04-06T21:15:59;69197.78;;;-143.23;100.00
8501;BME280;4288;48.484;10.024;2023-04-06T21:18:26;69197.78;;;-143.23;100.00
8501;BME280;4288;48.484;10.024;2023-04-06T21:20:53;69197.78;;;-143.23;100.00
8501;BME280;4288;48.484;10.024;2023-04-06T21:23:21;69197.78;;;-143.23;100.00
8501;BME280;4288;48.484;10.024;2023-04-06T21:25:48;69197.78;;;-143.23;100.00
8501;BME280;4288;48.484;10.024;2023-04-06T21:28:16;69197.78;;;-143.23;100.00
8501;BME280;4288;48.484;10.024;2023-04-06T21:30:45;69197.78;;;-143.23;100.00
8501;BME280;4288;48.484;10.024;2023-04-06T21:33:12;69197.78;;;-143.23;100.00
8501;BME280;4288;48.484;10.024;2023-04-06T21:35:39;69197.78;;;-143.23;100.00
8501;BME280;4288;48.484;10.024;2023-04-06T21:38:07;69197.78;;;-143.23;100.00
8501;BME280;4288;48.484;10.024;2023-04-06T21:40:35;69197.78;;;-143.23;100.00
8501;BME280;4288;48.484;10.024;2023-04-06T21:43:02;69197.78;;;-143.23;100.00
8501;BME280;4288;48.484;10.024;2023-04-06T21:45:30;69197.78;;;-143.23;100.00
8501;BME280;4288;48.484;10.024;2023-04-06T21:47:59;69197.78;;;-143.23;100.00
8501;BME280;4288;48.484;10.024;2023-04-06T21:50:26;69197.78;;;-143.23;100.00
8501;BME280;4288;48.484;10.024;2023-04-06T21:52:53;69197.78;;;-143.23;100.00
8501;BME280;4288;48.484;10.024;2023-04-06T21:55:20;69197.78;;;-143.23;100.00
8501;BME280;4288;48.484;10.024;2023-04-06T21:57:47;69197.78;;;-143.23;100.00
8501;BME280;4288;48.484;10.024;2023-04-06T22:00:16;69197.78;;;-143.23;100.00
8501;BME280;4288;48.484;10.024;2023-04-06T22:02:44;69197.78;;;-143.23;100.00
8501;BME280;4288;48.484;10.024;2023-04-06T22:05:13;69197.78;;;-143.23;100.00
8501;BME280;4288;48.484;10.024;2023-04-06T22:07:40;69197.78;;;-143.23;100.00
8501;BME280;4288;48.484;10.024;2023-04-06T22:10:08;69197.78;;;-143.23;100.00
8501;BME280;4288;48.484;10.024;2023-04-06T22:12:36;69197.78;;;-143.23;100.00
8501;BME280;4288;48.484;10.024;2023-04-06T22:15:04;69197.78;;;-143.23;100.00
8501;BME280;4288;48.484;10.024;2023-04-06T22:17:32;69197.78;;;-143.23;100.00
8501;BME280;4288;48.484;10.024;2023-04-06T22:19:59;69197.78;;;-143.23;100.00
8501;BME280;4288;48.484;10.024;2023-04-06T22:22:27;69197.78;;;-143.23;100.00
8501;BME280;4288;48.484;10.024;2023-04-06T22:24:54;69197.78;;;-143.23;100.00
8501;BME280;4288;48.484;10.024;2023-04-06T22:27:23;69197.78;;;-143.23;100.00
8501;BME280;4288;48.484;10.024;2023-04-06T22:29:50;69197.78;;;-143.23;100.00
8501;BME280;4288;48.484;10.024;2023-04-06T22:32:17;69197.78;;;-143.23;100.00
8501;BME280;4288;48.484;10.024;2023-04-06T22:34:44;69197.78;;;-143.23;100.00
8501;BME280;4288;48.484;10.024;2023-04-06T22:37:11;69197.78;;;-143.23;100.00
8501;BME280;4288;48.484;10.024;2023-04-06T22:39:40;69197.78;;;-143.23;100.00